Time;durP1;ratioP1;P1;durP2;ratioP2;P2;SDS_P1;SDS_P2;PMS_P1;PMS_P2;Temp;Humidity;BMP_temperature;BMP_pressure;BME280_temperature;BME280_humidity;BME280_pressure;Samples;Min_cycle;Max_cycle;Signal;HPM_P1;HPM_P2
2022/11/08 00:01:33;;;;;;;11.93;4.70;;;;;;;;;;5073905;28;20262;-72
2022/11/08 00:04:00;;;;;;;10.73;3.37;;;;;;;;;;5055391;28;20181;-72
2022/11/08 00:14:41;;;;;;;9.97;3.37;;;;;;;;;;5073762;28;20165;-72
2022/11/08 00:17:07;;;;;;;12.23;4.17;;;;;;;;;;5055528;28;20677;-73
2022/11/08 00:19:33;;;;;;;9.47;3.30;;;;;;;;;;5059376;28;20208;-72
2022/11/08 00:21:59;;;;;;;14.17;3.57;;;;;;;;;;5077519;28;20626;-73
2022/11/08 00:24:25;;;;;;;13.03;3.23;;;;;;;;;;5077231;28;20181;-73
2022/11/08 00:26:51;;;;;;;10.67;3.40;;;;;;;;;;5059206;28;20202;-73
2022/11/08 00:29:17;;;;;;;8.30;2.97;;;;;;;;;;5059506;28;20234;-72
2022/11/08 00:31:43;;;;;;;8.43;2.70;;;;;;;;;;5060269;28;20205;-73
2022/11/08 00:34:10;;;;;;;10.23;3.33;;;;;;;;;;5058907;28;20174;-73
2022/11/08 00:36:36;;;;;;;7.57;2.60;;;;;;;;;;5058934;28;20281;-73
2022/11/08 00:39:02;;;;;;;12.90;3.20;;;;;;;;;;5059067;28;20220;-72
2022/11/08 00:41:28;;;;;;;7.23;2.90;;;;;;;;;;5076967;28;20174;-73
2022/11/08 00:43:54;;;;;;;8.67;2.53;;;;;;;;;;5059130;28;20681;-73
2022/11/08 00:46:20;;;;;;;7.67;2.77;;;;;;;;;;5058607;28;20198;-74
2022/11/08 00:48:45;;;;;;;7.83;3.20;;;;;;;;;;5077129;28;20634;-73
2022/11/08 00:51:12;;;;;;;5.70;2.30;;;;;;;;;;5076524;28;20205;-74
2022/11/08 00:53:38;;;;;;;6.17;2.77;;;;;;;;;;5059123;28;20181;-73
2022/11/08 00:56:05;;;;;;;8.13;3.27;;;;;;;;;;5076390;28;20217;-73
2022/11/08 00:58:31;;;;;;;9.67;3.27;;;;;;;;;;5076346;28;20209;-73
2022/11/08 01:00:57;;;;;;;8.33;2.97;;;;;;;;;;5076468;28;20181;-74
2022/11/08 01:03:24;;;;;;;5.53;2.53;;;;;;;;;;5058247;28;20189;-74
2022/11/08 01:05:53;;;;;;;8.07;2.77;;;;;;;;;;5076655;28;20209;-74
2022/11/08 01:08:20;;;;;;;10.30;2.40;;;;;;;;;;5076298;28;20208;-74
2022/11/08 01:10:48;;;;;;;7.37;2.93;;;;;;;;;;5058220;28;20201;-73
2022/11/08 01:13:14;;;;;;;8.90;3.10;;;;;;;;;;5076258;28;20184;-73
2022/11/08 01:15:41;;;;;;;7.53;2.87;;;;;;;;;;5076462;28;20206;-74
2022/11/08 01:18:07;;;;;;;8.37;2.90;;;;;;;;;;5076702;28;20328;-73
2022/11/08 01:20:37;;;;;;;6.50;3.03;;;;;;;;;;5076080;28;20264;-73
2022/11/08 01:23:03;;;;;;;9.77;3.90;;;;;;;;;;5058014;28;20182;-73
2022/11/08 01:25:28;;;;;;;9.63;4.30;;;;;;;;;;5057694;28;20197;-73
2022/11/08 01:27:54;;;;;;;13.57;4.63;;;;;;;;;;5057564;28;20186;-73
2022/11/08 01:30:21;;;;;;;15.07;5.70;;;;;;;;;;5075713;28;20201;-74
2022/11/08 01:32:47;;;;;;;12.97;5.67;;;;;;;;;;5075635;28;20174;-73
2022/11/08 01:35:12;;;;;;;9.80;4.43;;;;;;;;;;5075626;28;20197;-73
2022/11/08 01:37:38;;;;;;;9.20;4.47;;;;;;;;;;5075764;28;20253;-73
2022/11/08 01:40:05;;;;;;;10.93;4.97;;;;;;;;;;5075681;28;20177;-73
2022/11/08 01:42:32;;;;;;;13.60;5.07;;;;;;;;;;5057701;28;20188;-74
2022/11/08 01:45:05;;;;;;;12.07;4.90;;;;;;;;;;5075485;28;20308;-74
2022/11/08 01:47:31;;;;;;;17.13;5.87;;;;;;;;;;5075459;28;20196;-74
2022/11/08 01:50:00;;;;;;;13.20;5.20;;;;;;;;;;5063020;28;20186;-73
2022/11/08 01:52:31;;;;;;;11.20;5.37;;;;;;;;;;5069683;28;20669;-73
2022/11/08 01:55:07;;;;;;;17.00;6.03;;;;;;;;;;5069743;28;20177;-73
2022/11/08 01:57:36;;;;;;;12.53;6.17;;;;;;;;;;5067968;28;20166;-73
2022/11/08 02:00:04;;;;;;;14.90;6.83;;;;;;;;;;5075103;28;20642;-73
2022/11/08 02:02:31;;;;;;;15.87;6.80;;;;;;;;;;5075307;28;20170;-73
2022/11/08 02:04:58;;;;;;;17.83;7.03;;;;;;;;;;5074960;28;20230;-73
2022/11/08 02:07:24;;;;;;;20.10;7.20;;;;;;;;;;5074945;28;20639;-73
2022/11/08 02:09:50;;;;;;;11.37;5.97;;;;;;;;;;5075051;28;20707;-73
2022/11/08 02:12:18;;;;;;;13.40;5.97;;;;;;;;;;5056863;28;20253;-74
2022/11/08 02:14:44;;;;;;;12.37;5.10;;;;;;;;;;5074878;28;20174;-73
2022/11/08 02:17:10;;;;;;;14.90;5.93;;;;;;;;;;5074712;28;20284;-73
2022/11/08 02:19:39;;;;;;;12.37;5.03;;;;;;;;;;5074739;28;20174;-73
2022/11/08 02:22:09;;;;;;;14.50;6.07;;;;;;;;;;5074650;28;20260;-73
2022/11/08 02:24:35;;;;;;;14.73;5.93;;;;;;;;;;5074649;28;20178;-73
2022/11/08 02:27:01;;;;;;;16.93;6.67;;;;;;;;;;5057813;28;20251;-73
2022/11/08 02:29:29;;;;;;;18.23;6.60;;;;;;;;;;5077086;28;20192;-73
2022/11/08 02:31:55;;;;;;;12.50;5.90;;;;;;;;;;5077400;28;20198;-73
2022/11/08 02:34:24;;;;;;;14.17;6.30;;;;;;;;;;5058912;28;20706;-73
2022/11/08 02:36:50;;;;;;;14.17;6.27;;;;;;;;;;5074789;28;20190;-74
2022/11/08 02:39:16;;;;;;;10.73;5.30;;;;;;;;;;5056823;28;20254;-73
2022/11/08 02:41:42;;;;;;;18.33;6.10;;;;;;;;;;5073616;28;20182;-72
2022/11/08 02:44:08;;;;;;;11.70;6.53;;;;;;;;;;5074588;28;20182;-73
2022/11/08 02:46:34;;;;;;;10.77;5.83;;;;;;;;;;5074282;28;20198;-73
2022/11/08 02:48:59;;;;;;;18.20;5.70;;;;;;;;;;5074380;28;20196;-73
2022/11/08 02:51:25;;;;;;;11.97;5.77;;;;;;;;;;5074029;28;20204;-73
2022/11/08 02:53:51;;;;;;;11.47;6.53;;;;;;;;;;5074049;28;20170;-73
2022/11/08 02:56:17;;;;;;;12.07;6.30;;;;;;;;;;5074533;28;20300;-73
2022/11/08 02:58:43;;;;;;;14.30;7.33;;;;;;;;;;5074167;28;20236;-72
2022/11/08 03:01:09;;;;;;;19.67;8.50;;;;;;;;;;5075025;28;20178;-73
2022/11/08 03:03:35;;;;;;;17.63;9.70;;;;;;;;;;5074664;28;20184;-73
2022/11/08 03:06:01;;;;;;;19.80;7.47;;;;;;;;;;5074205;28;20201;-73
2022/11/08 03:08:27;;;;;;;14.23;6.13;;;;;;;;;;5075604;28;20235;-73
2022/11/08 03:10:53;;;;;;;12.67;4.77;;;;;;;;;;5074955;28;20220;-74
2022/11/08 03:13:19;;;;;;;11.80;4.60;;;;;;;;;;5058063;28;20572;-73
2022/11/08 03:15:45;;;;;;;10.53;4.13;;;;;;;;;;5078391;28;20193;-73
2022/11/08 03:18:11;;;;;;;6.33;3.20;;;;;;;;;;5078789;28;20173;-73
2022/11/08 03:20:37;;;;;;;9.73;3.83;;;;;;;;;;5078399;28;20177;-73
2022/11/08 03:23:04;;;;;;;8.23;3.17;;;;;;;;;;5077076;28;20213;-74
2022/11/08 03:25:30;;;;;;;7.50;2.67;;;;;;;;;;5074070;28;20614;-73
2022/11/08 03:28:00;;;;;;;6.53;2.50;;;;;;;;;;5055772;28;20182;-73
2022/11/08 03:30:26;;;;;;;7.03;2.70;;;;;;;;;;5055812;28;20578;-73
2022/11/08 03:32:52;;;;;;;4.70;2.57;;;;;;;;;;5055778;28;20277;-73
2022/11/08 03:35:18;;;;;;;5.37;2.67;;;;;;;;;;5073697;28;20205;-73
2022/11/08 03:37:50;;;;;;;6.97;3.20;;;;;;;;;;5075586;28;20170;-74
2022/11/08 03:40:17;;;;;;;11.13;3.43;;;;;;;;;;5056337;28;20290;-73
2022/11/08 03:42:43;;;;;;;7.70;3.00;;;;;;;;;;5055455;28;20272;-73
2022/11/08 03:45:10;;;;;;;7.00;3.07;;;;;;;;;;5073300;28;20190;-73
2022/11/08 03:47:39;;;;;;;6.03;2.77;;;;;;;;;;5073512;28;20549;-73
2022/11/08 03:50:06;;;;;;;7.43;3.43;;;;;;;;;;5073345;28;20184;-73
2022/11/08 03:52:39;;;;;;;7.40;3.67;;;;;;;;;;5073098;28;20234;-73
2022/11/08 03:55:05;;;;;;;8.30;2.90;;;;;;;;;;5073569;28;20585;-73
2022/11/08 03:57:31;;;;;;;12.70;3.20;;;;;;;;;;5097942;22;20719;-64
2022/11/08 03:59:57;;;;;;;6.30;3.17;;;;;;;;;;5071986;28;20206;-66
2022/11/08 04:02:23;;;;;;;6.90;2.97;;;;;;;;;;5073703;28;20181;-67
2022/11/08 04:04:49;;;;;;;6.60;3.10;;;;;;;;;;5073104;28;20185;-64
2022/11/08 04:07:15;;;;;;;6.00;3.63;;;;;;;;;;5071670;28;20186;-65
2022/11/08 04:09:41;;;;;;;7.23;3.50;;;;;;;;;;5073516;28;20280;-65
2022/11/08 04:23:05;;;;;;;7.73;3.57;;;;;;;;;;5073322;28;20235;-66
2022/11/08 04:25:31;;;;;;;7.63;3.57;;;;;;;;;;5071580;28;20642;-66
2022/11/08 04:27:57;;;;;;;7.47;3.53;;;;;;;;;;5073490;28;20202;-66
2022/11/08 04:30:23;;;;;;;10.00;3.33;;;;;;;;;;5073097;28;20217;-67
2022/11/08 04:32:49;;;;;;;10.03;3.30;;;;;;;;;;5071787;28;20193;-65
2022/11/08 04:35:15;;;;;;;14.57;3.87;;;;;;;;;;5072826;28;20243;-65
2022/11/08 04:37:41;;;;;;;6.43;2.97;;;;;;;;;;5072709;28;20201;-65
2022/11/08 04:40:07;;;;;;;9.23;3.47;;;;;;;;;;5072731;28;20178;-65
2022/11/08 04:42:33;;;;;;;7.73;3.27;;;;;;;;;;5072715;28;20227;-65
2022/11/08 04:44:59;;;;;;;5.03;3.20;;;;;;;;;;5072651;28;20178;-65
2022/11/08 04:47:25;;;;;;;9.73;3.40;;;;;;;;;;5071328;28;20198;-67
2022/11/08 04:49:51;;;;;;;5.53;3.50;;;;;;;;;;5071397;28;20279;-65
2022/11/08 04:52:17;;;;;;;6.23;3.00;;;;;;;;;;5072496;28;20715;-65
2022/11/08 04:54:44;;;;;;;9.80;3.27;;;;;;;;;;5072516;28;20174;-65
2022/11/08 04:57:10;;;;;;;7.13;3.13;;;;;;;;;;5072678;28;20546;-65
2022/11/08 04:59:36;;;;;;;8.93;2.90;;;;;;;;;;5072746;28;20254;-65
2022/11/08 05:02:02;;;;;;;5.17;2.50;;;;;;;;;;5071246;28;20640;-65
2022/11/08 05:04:28;;;;;;;7.13;3.30;;;;;;;;;;5073541;28;20227;-65
2022/11/08 05:06:54;;;;;;;5.10;2.50;;;;;;;;;;5074942;28;20189;-65
2022/11/08 05:09:20;;;;;;;6.60;3.10;;;;;;;;;;5076029;28;20221;-65
2022/11/08 05:11:46;;;;;;;9.07;3.40;;;;;;;;;;5076057;28;20209;-65
2022/11/08 05:14:12;;;;;;;5.87;3.13;;;;;;;;;;5075949;28;20182;-65
2022/11/08 05:16:38;;;;;;;10.60;3.30;;;;;;;;;;5076012;28;20260;-65
2022/11/08 05:19:04;;;;;;;8.90;3.30;;;;;;;;;;5075890;28;20196;-65
2022/11/08 05:24:15;;;;;;;8.10;3.30;;;;;;;;;;5076035;28;20166;-65
2022/11/08 05:26:43;;;;;;;11.23;3.20;;;;;;;;;;5075649;28;20189;-65
2022/11/08 05:29:09;;;;;;;5.23;2.80;;;;;;;;;;5075552;28;20662;-65
2022/11/08 05:31:35;;;;;;;7.40;3.10;;;;;;;;;;5075886;28;20208;-64
2022/11/08 05:34:01;;;;;;;8.10;2.90;;;;;;;;;;5074687;28;20189;-64
2022/11/08 05:36:27;;;;;;;6.73;3.00;;;;;;;;;;5075446;28;20182;-65
2022/11/08 05:38:53;;;;;;;3.77;2.63;;;;;;;;;;5075526;28;20733;-65
2022/11/08 05:41:20;;;;;;;6.13;2.93;;;;;;;;;;5075829;28;20626;-66
2022/11/08 05:43:47;;;;;;;4.53;2.73;;;;;;;;;;5074069;28;20181;-67
2022/11/08 05:46:13;;;;;;;6.97;2.60;;;;;;;;;;5074414;28;20550;-65
2022/11/08 05:48:41;;;;;;;4.83;2.77;;;;;;;;;;5075256;28;20198;-65
2022/11/08 05:51:07;;;;;;;5.43;2.80;;;;;;;;;;5075267;28;20205;-65
2022/11/08 05:53:33;;;;;;;5.53;2.63;;;;;;;;;;5075252;28;20522;-66
2022/11/08 05:56:01;;;;;;;6.27;2.73;;;;;;;;;;5075280;28;20181;-65
2022/11/08 05:58:27;;;;;;;6.00;2.83;;;;;;;;;;5073589;28;20304;-66
2022/11/08 06:01:03;;;;;;;3.60;2.63;;;;;;;;;;5073676;28;20268;-66
2022/11/08 06:03:30;;;;;;;7.90;3.20;;;;;;;;;;5075343;28;20238;-65
2022/11/08 06:05:56;;;;;;;5.53;2.70;;;;;;;;;;5073877;28;20182;-67
2022/11/08 06:08:22;;;;;;;6.80;3.07;;;;;;;;;;5075135;28;20608;-65
2022/11/08 06:10:48;;;;;;;6.63;3.20;;;;;;;;;;5073290;28;20202;-66
2022/11/08 06:13:14;;;;;;;6.73;2.90;;;;;;;;;;5073105;28;20185;-65
2022/11/08 06:15:40;;;;;;;4.23;2.50;;;;;;;;;;5075103;28;20253;-66
2022/11/08 06:18:06;;;;;;;7.33;2.73;;;;;;;;;;5074619;28;20661;-66
2022/11/08 06:20:31;;;;;;;3.90;2.60;;;;;;;;;;5073429;28;20610;-66
2022/11/08 06:22:57;;;;;;;5.53;2.67;;;;;;;;;;5073384;28;20638;-66
2022/11/08 06:25:23;;;;;;;6.87;2.83;;;;;;;;;;5074488;28;20209;-66
2022/11/08 06:27:49;;;;;;;3.97;2.80;;;;;;;;;;5073010;28;20205;-66
2022/11/08 06:30:15;;;;;;;6.07;2.60;;;;;;;;;;5073082;28;20334;-65
2022/11/08 06:32:41;;;;;;;7.23;2.73;;;;;;;;;;5073176;28;20185;-66
2022/11/08 06:35:08;;;;;;;6.83;2.60;;;;;;;;;;5073130;28;20181;-66
2022/11/08 06:37:33;;;;;;;4.07;2.20;;;;;;;;;;5072912;28;20201;-66
2022/11/08 06:39:59;;;;;;;7.87;2.77;;;;;;;;;;5074208;28;20235;-65
2022/11/08 06:42:26;;;;;;;5.63;2.70;;;;;;;;;;5074326;28;20284;-66
2022/11/08 06:44:52;;;;;;;5.57;2.60;;;;;;;;;;5073012;28;20232;-65
2022/11/08 06:47:18;;;;;;;3.90;2.47;;;;;;;;;;5074470;28;20182;-65
2022/11/08 06:49:44;;;;;;;4.30;2.47;;;;;;;;;;5073189;28;20269;-66
2022/11/08 06:52:10;;;;;;;6.87;2.73;;;;;;;;;;5074464;28;20237;-65
2022/11/08 06:54:36;;;;;;;5.50;2.60;;;;;;;;;;5072820;28;20607;-65
2022/11/08 06:57:01;;;;;;;3.17;2.30;;;;;;;;;;5072463;28;20228;-65
2022/11/08 06:59:28;;;;;;;7.70;2.47;;;;;;;;;;5074092;28;20212;-66
2022/11/08 07:01:54;;;;;;;6.43;2.50;;;;;;;;;;5073700;28;20546;-66
2022/11/08 07:04:20;;;;;;;3.10;2.30;;;;;;;;;;5073792;28;20181;-66
2022/11/08 07:06:46;;;;;;;4.27;2.67;;;;;;;;;;5074374;28;20193;-66
2022/11/08 07:09:13;;;;;;;6.87;2.50;;;;;;;;;;5072339;28;20206;-64
2022/11/08 07:11:38;;;;;;;5.47;2.33;;;;;;;;;;5073879;28;20213;-66
2022/11/08 07:14:04;;;;;;;4.77;2.40;;;;;;;;;;5073887;28;20170;-65
2022/11/08 07:16:30;;;;;;;5.37;2.20;;;;;;;;;;5072388;28;20177;-65
2022/11/08 07:18:56;;;;;;;5.43;2.70;;;;;;;;;;5073631;28;20248;-65
2022/11/08 07:21:22;;;;;;;5.30;2.50;;;;;;;;;;5073646;28;20178;-65
2022/11/08 07:23:49;;;;;;;6.40;3.10;;;;;;;;;;5072435;28;20178;-65
2022/11/08 07:26:15;;;;;;;5.80;2.83;;;;;;;;;;5073376;28;20252;-66
2022/11/08 07:28:41;;;;;;;4.57;2.60;;;;;;;;;;5073579;28;20674;-65
2022/11/08 07:31:08;;;;;;;8.47;2.40;;;;;;;;;;5072292;28;20205;-66
2022/11/08 07:33:34;;;;;;;6.43;3.10;;;;;;;;;;5073320;28;20532;-65
2022/11/08 07:36:00;;;;;;;6.30;4.27;;;;;;;;;;5073364;28;20203;-65
2022/11/08 07:38:26;;;;;;;9.10;2.90;;;;;;;;;;5073720;28;20277;-65
2022/11/08 07:40:56;;;;;;;8.60;2.33;;;;;;;;;;5072329;28;20684;-65
2022/11/08 07:43:22;;;;;;;6.83;2.60;;;;;;;;;;5071979;28;20280;-65
2022/11/08 07:45:52;;;;;;;4.13;2.30;;;;;;;;;;5073343;28;20257;-65
2022/11/08 07:48:18;;;;;;;3.47;2.03;;;;;;;;;;5073610;28;20197;-65
2022/11/08 07:50:45;;;;;;;4.10;1.90;;;;;;;;;;5073484;28;20212;-66
2022/11/08 07:53:11;;;;;;;3.93;2.03;;;;;;;;;;5073328;28;20209;-65
2022/11/08 07:55:38;;;;;;;4.80;2.30;;;;;;;;;;5071964;28;20174;-65
2022/11/08 07:58:04;;;;;;;5.93;2.00;;;;;;;;;;5073091;28;20782;-65
2022/11/08 08:00:31;;;;;;;3.03;2.17;;;;;;;;;;5073037;28;20174;-64
2022/11/08 08:03:00;;;;;;;5.17;2.20;;;;;;;;;;5071891;28;20189;-66
2022/11/08 08:05:27;;;;;;;5.07;2.30;;;;;;;;;;5073407;28;20182;-65
2022/11/08 08:07:57;;;;;;;5.13;2.78;;;;;;;;;;5070484;28;20418;-65
2022/11/08 08:10:23;;;;;;;4.73;2.23;;;;;;;;;;5071682;28;20683;-65
2022/11/08 08:12:49;;;;;;;5.03;2.43;;;;;;;;;;5073165;28;20638;-65
2022/11/08 08:15:15;;;;;;;6.33;1.97;;;;;;;;;;5073167;28;20244;-66
2022/11/08 08:17:41;;;;;;;6.03;2.67;;;;;;;;;;5072786;28;20574;-65
2022/11/08 08:20:07;;;;;;;6.00;3.47;;;;;;;;;;5073393;28;20617;-65
2022/11/08 08:22:33;;;;;;;8.50;2.83;;;;;;;;;;5071450;28;20174;-65
2022/11/08 08:24:59;;;;;;;7.97;3.43;;;;;;;;;;5071814;28;20268;-65
2022/11/08 08:27:25;;;;;;;7.33;3.20;;;;;;;;;;5073015;28;20280;-65
2022/11/08 08:29:51;;;;;;;4.17;2.33;;;;;;;;;;5072692;28;20407;-65
2022/11/08 08:32:17;;;;;;;4.63;2.77;;;;;;;;;;5072544;28;20212;-65
2022/11/08 08:34:43;;;;;;;7.17;3.20;;;;;;;;;;5073161;28;20325;-65
2022/11/08 08:37:14;;;;;;;6.47;3.40;;;;;;;;;;5072834;28;20174;-64
2022/11/08 08:39:40;;;;;;;6.33;3.27;;;;;;;;;;5075419;28;20219;-66
2022/11/08 08:42:06;;;;;;;7.80;3.20;;;;;;;;;;5076612;28;20193;-65
2022/11/08 08:44:32;;;;;;;3.83;1.97;;;;;;;;;;5076575;28;20186;-65
2022/11/08 08:46:57;;;;;;;4.40;2.47;;;;;;;;;;5076553;28;20174;-65
2022/11/08 08:49:23;;;;;;;6.03;2.40;;;;;;;;;;5076355;28;20546;-65
2022/11/08 08:51:49;;;;;;;2.60;2.20;;;;;;;;;;5076287;28;20696;-65
2022/11/08 08:54:15;;;;;;;5.77;3.03;;;;;;;;;;5076422;28;20174;-65
2022/11/08 08:56:41;;;;;;;3.80;2.57;;;;;;;;;;5076723;28;20181;-65
2022/11/08 08:59:07;;;;;;;7.33;3.40;;;;;;;;;;5076288;28;20220;-65
2022/11/08 09:01:33;;;;;;;4.20;2.50;;;;;;;;;;5075331;28;20673;-65
2022/11/08 09:03:59;;;;;;;3.97;2.50;;;;;;;;;;5076557;28;20236;-65
2022/11/08 09:06:25;;;;;;;3.57;2.50;;;;;;;;;;5076240;28;20178;-65
2022/11/08 09:08:51;;;;;;;5.40;2.90;;;;;;;;;;5076178;28;20211;-65
2022/11/08 09:11:18;;;;;;;7.10;3.00;;;;;;;;;;5076046;28;20197;-66
2022/11/08 09:13:44;;;;;;;6.37;2.67;;;;;;;;;;5075902;28;20235;-65
2022/11/08 09:16:12;;;;;;;5.77;2.97;;;;;;;;;;5075650;28;20178;-64
2022/11/08 09:18:38;;;;;;;5.30;3.03;;;;;;;;;;5075646;28;20565;-65
2022/11/08 09:21:04;;;;;;;9.20;2.97;;;;;;;;;;5076110;28;20541;-65
2022/11/08 09:23:30;;;;;;;7.30;3.07;;;;;;;;;;5075656;28;20234;-65
2022/11/08 09:25:57;;;;;;;4.73;3.10;;;;;;;;;;5075874;28;20184;-65
2022/11/08 09:28:23;;;;;;;10.60;3.67;;;;;;;;;;5075432;28;20339;-65
2022/11/08 09:30:49;;;;;;;12.73;3.90;;;;;;;;;;5075696;28;20284;-65
2022/11/08 09:33:15;;;;;;;6.17;3.13;;;;;;;;;;5075348;28;20182;-65
2022/11/08 09:35:41;;;;;;;6.10;3.20;;;;;;;;;;5075973;28;20174;-65
2022/11/08 09:38:07;;;;;;;7.17;3.53;;;;;;;;;;5075546;28;20204;-65
2022/11/08 09:40:37;;;;;;;6.10;3.07;;;;;;;;;;5074027;28;20189;-65
2022/11/08 09:43:14;;;;;;;10.83;3.63;;;;;;;;;;5075710;28;20170;-65
2022/11/08 09:45:40;;;;;;;6.30;3.87;;;;;;;;;;5074090;28;20174;-65
2022/11/08 09:48:07;;;;;;;5.47;3.47;;;;;;;;;;5074206;28;20207;-65
2022/11/08 09:50:33;;;;;;;4.97;3.30;;;;;;;;;;5075176;28;20178;-65
2022/11/08 09:53:19;;;;;;;5.33;3.17;;;;;;;;;;5075112;28;20189;-65
2022/11/08 09:55:50;;;;;;;4.93;3.00;;;;;;;;;;5075116;28;20265;-66
2022/11/08 09:58:25;;;;;;;8.00;2.70;;;;;;;;;;5075263;28;20714;-65
2022/11/08 10:00:52;;;;;;;11.30;2.90;;;;;;;;;;5074506;28;20177;-65
2022/11/08 10:03:19;;;;;;;5.93;4.10;;;;;;;;;;5086256;22;20654;-69
2022/11/08 10:05:51;;;;;;;4.90;2.70;;;;;;;;;;5082858;28;20227;-70
2022/11/08 10:08:31;;;;;;;5.40;2.50;;;;;;;;;;5080091;28;20162;-69
2022/11/08 10:11:08;;;;;;;7.00;2.67;;;;;;;;;;5059956;28;20201;-71
2022/11/08 10:13:34;;;;;;;3.77;2.63;;;;;;;;;;5080254;28;20193;-69
2022/11/08 10:16:00;;;;;;;9.37;5.67;;;;;;;;;;5078375;28;20185;-69
2022/11/08 10:18:32;;;;;;;5.53;2.90;;;;;;;;;;5057117;28;20265;-69
2022/11/08 10:21:08;;;;;;;3.60;2.60;;;;;;;;;;5057338;28;20255;-69
2022/11/08 10:23:40;;;;;;;4.87;2.60;;;;;;;;;;5074995;28;20201;-69
2022/11/08 10:26:16;;;;;;;7.77;2.50;;;;;;;;;;5057442;28;20589;-69
2022/11/08 10:28:55;;;;;;;6.43;2.37;;;;;;;;;;5074882;28;20181;-69
2022/11/08 10:31:21;;;;;;;5.10;2.53;;;;;;;;;;5075002;28;20635;-71
2022/11/08 10:33:47;;;;;;;4.77;2.70;;;;;;;;;;5056935;28;20222;-71
2022/11/08 10:36:16;;;;;;;7.37;2.30;;;;;;;;;;5075244;28;20177;-71
2022/11/08 10:39:06;;;;;;;7.53;2.63;;;;;;;;;;5057274;28;20174;-71
2022/11/08 10:41:32;;;;;;;8.67;2.80;;;;;;;;;;5067370;28;20280;-71
2022/11/08 10:44:14;;;;;;;6.03;2.70;;;;;;;;;;5056811;28;20233;-71
2022/11/08 10:46:50;;;;;;;5.40;2.60;;;;;;;;;;5074883;28;20249;-71
2022/11/08 10:49:21;;;;;;;5.17;2.63;;;;;;;;;;5056729;28;20185;-71
2022/11/08 10:51:48;;;;;;;8.27;2.70;;;;;;;;;;5074907;28;20198;-71
2022/11/08 10:54:33;;;;;;;5.50;2.73;;;;;;;;;;5074831;28;20194;-70
2022/11/08 10:56:59;;;;;;;7.00;2.83;;;;;;;;;;5074585;28;20224;-71
2022/11/08 10:59:29;;;;;;;3.77;2.07;;;;;;;;;;5074582;28;20178;-70
2022/11/08 11:01:55;;;;;;;4.03;2.57;;;;;;;;;;5074209;28;20526;-71
2022/11/08 11:04:29;;;;;;;3.50;2.80;;;;;;;;;;5074270;28;20212;-71
2022/11/08 11:07:00;;;;;;;7.00;2.60;;;;;;;;;;5074684;28;20253;-70
2022/11/08 11:09:26;;;;;;;5.17;2.43;;;;;;;;;;5057340;28;20744;-71
2022/11/08 11:11:57;;;;;;;5.17;2.60;;;;;;;;;;5056927;28;20212;-71
2022/11/08 11:14:23;;;;;;;10.70;3.00;;;;;;;;;;5074790;28;20220;-71
2022/11/08 11:16:55;;;;;;;5.87;2.50;;;;;;;;;;5074444;28;20248;-71
2022/11/08 11:19:22;;;;;;;4.13;2.90;;;;;;;;;;5074572;28;20174;-71
2022/11/08 11:21:55;;;;;;;8.93;3.30;;;;;;;;;;5058363;28;20650;-72
2022/11/08 11:24:22;;;;;;;9.27;4.03;;;;;;;;;;5057576;28;20213;-71
2022/11/08 11:26:49;;;;;;;7.33;3.63;;;;;;;;;;5074036;28;20178;-71
2022/11/08 11:29:23;;;;;;;6.47;3.20;;;;;;;;;;5073933;28;20182;-71
2022/11/08 11:31:51;;;;;;;10.93;3.60;;;;;;;;;;5074240;28;20224;-71
2022/11/08 11:34:17;;;;;;;6.50;3.27;;;;;;;;;;5074778;28;20186;-71
2022/11/08 11:36:45;;;;;;;6.13;3.27;;;;;;;;;;5074417;28;20174;-71
2022/11/08 11:39:29;;;;;;;5.90;3.13;;;;;;;;;;5056016;28;20174;-71
2022/11/08 11:42:14;;;;;;;8.37;3.47;;;;;;;;;;5073969;28;20256;-71
2022/11/08 11:44:40;;;;;;;5.20;2.90;;;;;;;;;;5073983;28;20177;-71
2022/11/08 11:47:14;;;;;;;6.67;3.83;;;;;;;;;;5073901;28;20178;-71
2022/11/08 11:49:42;;;;;;;10.33;4.70;;;;;;;;;;5074413;28;20182;-72
2022/11/08 11:52:16;;;;;;;14.30;5.10;;;;;;;;;;5057232;28;20198;-71
2022/11/08 11:54:42;;;;;;;13.23;4.97;;;;;;;;;;5075831;28;20181;-71
2022/11/08 11:57:15;;;;;;;7.80;4.67;;;;;;;;;;5074152;28;20173;-71
2022/11/08 11:59:50;;;;;;;8.57;3.67;;;;;;;;;;5056059;28;20549;-71
2022/11/08 12:02:16;;;;;;;13.37;5.30;;;;;;;;;;5073354;28;20178;-71
2022/11/08 12:05:00;;;;;;;14.27;6.67;;;;;;;;;;5055444;28;20196;-71
2022/11/08 12:07:27;;;;;;;8.07;5.13;;;;;;;;;;5055979;28;20276;-70
2022/11/08 12:10:10;;;;;;;6.43;4.27;;;;;;;;;;5074394;28;20174;-71
2022/11/08 12:12:48;;;;;;;4.30;3.20;;;;;;;;;;5074900;28;20209;-70
2022/11/08 12:15:30;;;;;;;4.17;3.20;;;;;;;;;;5078265;28;20569;-71
2022/11/08 12:18:02;;;;;;;3.17;2.27;;;;;;;;;;5078457;28;20260;-70
2022/11/08 12:20:37;;;;;;;6.93;2.90;;;;;;;;;;5078364;28;20532;-70
2022/11/08 12:23:06;;;;;;;8.37;2.70;;;;;;;;;;5078070;28;20197;-71
2022/11/08 12:25:36;;;;;;;5.20;2.33;;;;;;;;;;5059390;28;20178;-70
2022/11/08 12:28:08;;;;;;;8.10;2.90;;;;;;;;;;5077823;28;20274;-70
2022/11/08 12:30:58;;;;;;;7.70;2.80;;;;;;;;;;5077577;28;20178;-71
2022/11/08 12:33:37;;;;;;;5.63;2.77;;;;;;;;;;5059785;28;20194;-71
2022/11/08 12:36:03;;;;;;;4.63;2.87;;;;;;;;;;5077846;28;20248;-71
2022/11/08 12:38:35;;;;;;;4.13;2.47;;;;;;;;;;5077577;28;20213;-71
2022/11/08 12:41:20;;;;;;;3.53;2.37;;;;;;;;;;5059917;28;20185;-71
2022/11/08 12:44:05;;;;;;;5.33;3.33;;;;;;;;;;5078546;28;20202;-70
2022/11/08 12:46:37;;;;;;;5.93;3.47;;;;;;;;;;5062117;28;20189;-71
2022/11/08 12:49:09;;;;;;;6.63;3.80;;;;;;;;;;5080293;28;20193;-72
2022/11/08 12:51:42;;;;;;;6.00;3.67;;;;;;;;;;5080167;28;20574;-70
2022/11/08 12:54:13;;;;;;;6.10;3.67;;;;;;;;;;5079616;28;20281;-71
2022/11/08 12:56:43;;;;;;;6.97;3.43;;;;;;;;;;5079665;28;20173;-68
2022/11/08 12:59:27;;;;;;;9.17;3.70;;;;;;;;;;5078003;28;20639;-71
2022/11/08 13:01:54;;;;;;;5.97;3.33;;;;;;;;;;5078213;28;20676;-71
2022/11/08 13:04:20;;;;;;;3.80;2.77;;;;;;;;;;5077056;28;20301;-71
2022/11/08 13:06:49;;;;;;;4.57;2.60;;;;;;;;;;5060160;28;20213;-71
2022/11/08 13:09:28;;;;;;;3.63;2.50;;;;;;;;;;5061662;28;20206;-71
2022/11/08 13:12:20;;;;;;;4.13;2.63;;;;;;;;;;5084850;28;20228;-70
2022/11/08 13:14:46;;;;;;;6.47;2.60;;;;;;;;;;5062841;28;20253;-70
2022/11/08 13:17:14;;;;;;;4.33;2.63;;;;;;;;;;5084685;28;20519;-70
2022/11/08 13:19:48;;;;;;;3.13;2.50;;;;;;;;;;5077188;28;20638;-70
2022/11/08 13:22:30;;;;;;;4.17;2.70;;;;;;;;;;5076341;28;20174;-70
2022/11/08 13:24:56;;;;;;;3.30;2.50;;;;;;;;;;5058211;28;20559;-70
2022/11/08 13:27:43;;;;;;;3.27;2.77;;;;;;;;;;5076612;28;20182;-71
2022/11/08 13:30:12;;;;;;;7.57;2.60;;;;;;;;;;5058663;28;20211;-71
2022/11/08 13:32:57;;;;;;;6.33;2.93;;;;;;;;;;5058206;28;20209;-71
2022/11/08 13:35:32;;;;;;;6.40;2.97;;;;;;;;;;5076736;28;20231;-71
2022/11/08 13:38:03;;;;;;;4.40;2.53;;;;;;;;;;5076283;28;20641;-72
2022/11/08 13:40:32;;;;;;;5.53;2.87;;;;;;;;;;5076289;28;20589;-72
2022/11/08 13:43:13;;;;;;;6.73;3.00;;;;;;;;;;5058157;28;20620;-71
2022/11/08 13:45:39;;;;;;;11.40;3.40;;;;;;;;;;5076460;28;20168;-72
2022/11/08 13:48:24;;;;;;;8.13;3.40;;;;;;;;;;5076182;28;20271;-71
2022/11/08 13:50:57;;;;;;;7.83;4.07;;;;;;;;;;5057915;28;20205;-71
2022/11/08 13:53:25;;;;;;;8.10;4.60;;;;;;;;;;5075781;28;20201;-71
2022/11/08 13:55:54;;;;;;;7.67;4.60;;;;;;;;;;5057849;28;20530;-72
2022/11/08 13:58:35;;;;;;;11.70;5.37;;;;;;;;;;5076143;28;20181;-71
2022/11/08 14:01:02;;;;;;;11.20;5.47;;;;;;;;;;5057891;28;20571;-71
2022/11/08 14:03:34;;;;;;;9.33;5.07;;;;;;;;;;5075818;28;20656;-72
2022/11/08 14:06:06;;;;;;;7.20;3.97;;;;;;;;;;5075563;28;20186;-71
2022/11/08 14:08:52;;;;;;;7.63;4.37;;;;;;;;;;5057941;28;20166;-71
2022/11/08 14:11:36;;;;;;;13.07;3.90;;;;;;;;;;5027541;28;20305;-71
2022/11/08 14:14:14;;;;;;;10.83;4.43;;;;;;;;;;5075560;28;20205;-72
2022/11/08 14:16:45;;;;;;;7.70;4.60;;;;;;;;;;5082463;28;20166;-71
2022/11/08 14:19:17;;;;;;;14.67;5.03;;;;;;;;;;5067863;28;20296;-71
2022/11/08 14:21:50;;;;;;;6.23;3.80;;;;;;;;;;5068075;28;20741;-71
2022/11/08 14:24:18;;;;;;;5.60;3.70;;;;;;;;;;5071138;28;20701;-71
2022/11/08 14:26:45;;;;;;;6.13;2.83;;;;;;;;;;5088864;28;20185;-71
2022/11/08 14:29:15;;;;;;;4.33;2.93;;;;;;;;;;5078210;28;20637;-71
2022/11/08 14:31:41;;;;;;;3.63;2.40;;;;;;;;;;5075646;28;20193;-72
2022/11/08 14:34:25;;;;;;;4.30;2.50;;;;;;;;;;5074718;28;20200;-72
2022/11/08 14:36:53;;;;;;;5.00;2.60;;;;;;;;;;5074865;28;20166;-72
2022/11/08 14:39:19;;;;;;;4.97;2.13;;;;;;;;;;5075180;28;20588;-71
2022/11/08 14:41:47;;;;;;;3.30;2.33;;;;;;;;;;5056926;28;20225;-71
2022/11/08 14:44:15;;;;;;;9.67;2.40;;;;;;;;;;5074737;28;20296;-72
2022/11/08 14:46:41;;;;;;;6.33;2.37;;;;;;;;;;5074732;28;20189;-72
2022/11/08 14:49:19;;;;;;;3.97;2.87;;;;;;;;;;5056694;28;20296;-72
2022/11/08 14:51:45;;;;;;;3.50;2.30;;;;;;;;;;5056852;28;20590;-72
2022/11/08 14:54:22;;;;;;;4.80;2.67;;;;;;;;;;5056539;28;20198;-72
2022/11/08 14:56:49;;;;;;;5.70;2.90;;;;;;;;;;5075069;28;20185;-72
2022/11/08 14:59:15;;;;;;;12.07;3.70;;;;;;;;;;5074470;28;20550;-72
2022/11/08 15:01:43;;;;;;;6.93;3.10;;;;;;;;;;5056683;28;20186;-72
2022/11/08 15:04:13;;;;;;;7.63;3.40;;;;;;;;;;5074272;28;20238;-70
2022/11/08 15:06:41;;;;;;;5.00;3.23;;;;;;;;;;5074376;28;20174;-71
2022/11/08 15:09:07;;;;;;;9.80;4.17;;;;;;;;;;5074358;28;20178;-71
2022/11/08 15:11:34;;;;;;;7.27;4.20;;;;;;;;;;5056145;28;20232;-72